sensor_id;sensor_type;location;lat;lon;timestamp;P1;durP1;ratioP1;P2;durP2;ratioP2
31808;SDS011;18379;48.208;-1.518;2023-06-26T00:04:52;53.07;;;49.43;;
31808;SDS011;18379;48.208;-1.518;2023-06-26T00:09:53;52.40;;;48.53;;
31808;SDS011;18379;48.208;-1.518;2023-06-26T00:14:54;52.40;;;48.80;;
31808;SDS011;18379;48.208;-1.518;2023-06-26T00:19:55;53.40;;;49.70;;
31808;SDS011;18379;48.208;-1.518;2023-06-26T00:30:33;52.40;;;48.90;;
31808;SDS011;18379;48.208;-1.518;2023-06-26T00:35:36;51.73;;;48.30;;
31808;SDS011;18379;48.208;-1.518;2023-06-26T00:40:37;52.47;;;48.57;;
31808;SDS011;18379;48.208;-1.518;2023-06-26T00:45:44;52.13;;;48.50;;
31808;SDS011;18379;48.208;-1.518;2023-06-26T00:51:18;52.90;;;48.67;;
31808;SDS011;18379;48.208;-1.518;2023-06-26T00:57:12;51.70;;;48.13;;
31808;SDS011;18379;48.208;-1.518;2023-06-26T01:02:13;53.33;;;49.10;;
31808;SDS011;18379;48.208;-1.518;2023-06-26T01:07:17;51.73;;;48.20;;
31808;SDS011;18379;48.208;-1.518;2023-06-26T01:12:20;52.80;;;48.90;;
31808;SDS011;18379;48.208;-1.518;2023-06-26T01:17:20;51.70;;;48.00;;
31808;SDS011;18379;48.208;-1.518;2023-06-26T01:22:26;52.90;;;48.47;;
31808;SDS011;18379;48.208;-1.518;2023-06-26T01:27:31;51.63;;;48.13;;
31808;SDS011;18379;48.208;-1.518;2023-06-26T01:32:33;52.40;;;48.20;;
31808;SDS011;18379;48.208;-1.518;2023-06-26T01:37:34;51.40;;;48.10;;
31808;SDS011;18379;48.208;-1.518;2023-06-26T01:42:35;50.83;;;47.63;;
31808;SDS011;18379;48.208;-1.518;2023-06-26T01:47:36;51.73;;;47.77;;
31808;SDS011;18379;48.208;-1.518;2023-06-26T01:57:56;51.33;;;47.70;;
31808;SDS011;18379;48.208;-1.518;2023-06-26T02:02:58;51.17;;;47.83;;
31808;SDS011;18379;48.208;-1.518;2023-06-26T02:07:59;52.93;;;48.87;;
31808;SDS011;18379;48.208;-1.518;2023-06-26T02:13:01;51.50;;;47.83;;
31808;SDS011;18379;48.208;-1.518;2023-06-26T02:18:02;52.03;;;48.33;;
31808;SDS011;18379;48.208;-1.518;2023-06-26T02:23:03;53.03;;;49.33;;
31808;SDS011;18379;48.208;-1.518;2023-06-26T02:28:04;51.63;;;47.63;;
31808;SDS011;18379;48.208;-1.518;2023-06-26T02:33:05;51.70;;;48.00;;
31808;SDS011;18379;48.208;-1.518;2023-06-26T02:38:06;51.60;;;48.10;;
31808;SDS011;18379;48.208;-1.518;2023-06-26T02:43:07;52.07;;;48.10;;
31808;SDS011;18379;48.208;-1.518;2023-06-26T02:48:07;51.80;;;47.50;;
31808;SDS011;18379;48.208;-1.518;2023-06-26T02:53:08;51.97;;;47.80;;
31808;SDS011;18379;48.208;-1.518;2023-06-26T02:58:09;51.33;;;47.73;;
31808;SDS011;18379;48.208;-1.518;2023-06-26T03:03:10;52.03;;;48.10;;
31808;SDS011;18379;48.208;-1.518;2023-06-26T03:08:10;51.33;;;47.47;;
31808;SDS011;18379;48.208;-1.518;2023-06-26T03:13:11;51.83;;;47.87;;
31808;SDS011;18379;48.208;-1.518;2023-06-26T03:18:12;50.80;;;47.40;;
31808;SDS011;18379;48.208;-1.518;2023-06-26T03:23:13;52.07;;;48.23;;
31808;SDS011;18379;48.208;-1.518;2023-06-26T03:28:13;51.67;;;47.97;;
31808;SDS011;18379;48.208;-1.518;2023-06-26T03:33:14;51.40;;;47.80;;
31808;SDS011;18379;48.208;-1.518;2023-06-26T03:38:15;51.67;;;47.83;;
31808;SDS011;18379;48.208;-1.518;2023-06-26T03:43:16;52.47;;;48.40;;
31808;SDS011;18379;48.208;-1.518;2023-06-26T03:48:17;52.03;;;48.23;;
31808;SDS011;18379;48.208;-1.518;2023-06-26T03:53:18;51.80;;;47.97;;
31808;SDS011;18379;48.208;-1.518;2023-06-26T03:58:18;51.53;;;47.70;;
31808;SDS011;18379;48.208;-1.518;2023-06-26T04:03:19;52.10;;;48.10;;
31808;SDS011;18379;48.208;-1.518;2023-06-26T04:08:20;52.23;;;48.27;;
31808;SDS011;18379;48.208;-1.518;2023-06-26T04:13:23;52.50;;;48.30;;
31808;SDS011;18379;48.208;-1.518;2023-06-26T04:18:24;52.07;;;47.97;;
31808;SDS011;18379;48.208;-1.518;2023-06-26T04:23:28;52.80;;;48.27;;
31808;SDS011;18379;48.208;-1.518;2023-06-26T04:28:29;52.03;;;48.37;;
31808;SDS011;18379;48.208;-1.518;2023-06-26T04:33:30;52.00;;;48.20;;
31808;SDS011;18379;48.208;-1.518;2023-06-26T04:38:32;51.87;;;47.70;;
31808;SDS011;18379;48.208;-1.518;2023-06-26T04:43:33;51.83;;;48.03;;
31808;SDS011;18379;48.208;-1.518;2023-06-26T04:48:34;52.57;;;48.53;;
31808;SDS011;18379;48.208;-1.518;2023-06-26T04:53:35;52.17;;;48.10;;
31808;SDS011;18379;48.208;-1.518;2023-06-26T04:58:35;52.47;;;48.63;;
31808;SDS011;18379;48.208;-1.518;2023-06-26T05:03:36;51.97;;;48.13;;
31808;SDS011;18379;48.208;-1.518;2023-06-26T05:08:37;51.57;;;47.60;;
31808;SDS011;18379;48.208;-1.518;2023-06-26T05:13:38;51.77;;;48.07;;
31808;SDS011;18379;48.208;-1.518;2023-06-26T05:18:38;51.40;;;47.80;;
31808;SDS011;18379;48.208;-1.518;2023-06-26T05:23:39;51.70;;;47.67;;
31808;SDS011;18379;48.208;-1.518;2023-06-26T05:28:41;52.73;;;48.60;;
31808;SDS011;18379;48.208;-1.518;2023-06-26T05:33:44;51.47;;;47.70;;
31808;SDS011;18379;48.208;-1.518;2023-06-26T05:38:46;51.63;;;47.97;;
31808;SDS011;18379;48.208;-1.518;2023-06-26T05:43:48;52.47;;;48.23;;
31808;SDS011;18379;48.208;-1.518;2023-06-26T05:48:49;50.60;;;47.10;;
31808;SDS011;18379;48.208;-1.518;2023-06-26T05:53:50;51.50;;;47.70;;
31808;SDS011;18379;48.208;-1.518;2023-06-26T05:58:52;54.33;;;49.70;;
31808;SDS011;18379;48.208;-1.518;2023-06-26T06:03:53;52.07;;;48.10;;
31808;SDS011;18379;48.208;-1.518;2023-06-26T06:08:53;52.63;;;48.30;;
31808;SDS011;18379;48.208;-1.518;2023-06-26T06:13:54;53.83;;;49.43;;
31808;SDS011;18379;48.208;-1.518;2023-06-26T06:18:55;53.90;;;48.97;;
31808;SDS011;18379;48.208;-1.518;2023-06-26T06:23:56;53.27;;;49.00;;
31808;SDS011;18379;48.208;-1.518;2023-06-26T06:28:56;54.63;;;49.70;;
31808;SDS011;18379;48.208;-1.518;2023-06-26T06:33:57;52.80;;;49.13;;
31808;SDS011;18379;48.208;-1.518;2023-06-26T06:38:58;52.63;;;48.70;;
31808;SDS011;18379;48.208;-1.518;2023-06-26T06:43:59;54.67;;;50.00;;
31808;SDS011;18379;48.208;-1.518;2023-06-26T06:49:00;53.33;;;49.00;;
31808;SDS011;18379;48.208;-1.518;2023-06-26T06:54:01;53.67;;;49.33;;
31808;SDS011;18379;48.208;-1.518;2023-06-26T06:59:02;53.10;;;49.00;;
31808;SDS011;18379;48.208;-1.518;2023-06-26T07:04:03;52.77;;;48.97;;
31808;SDS011;18379;48.208;-1.518;2023-06-26T07:09:04;53.23;;;48.90;;
31808;SDS011;18379;48.208;-1.518;2023-06-26T07:14:06;53.40;;;49.37;;
31808;SDS011;18379;48.208;-1.518;2023-06-26T07:19:06;52.70;;;49.07;;
31808;SDS011;18379;48.208;-1.518;2023-06-26T07:24:07;53.00;;;48.83;;
31808;SDS011;18379;48.208;-1.518;2023-06-26T07:29:08;54.37;;;49.93;;
31808;SDS011;18379;48.208;-1.518;2023-06-26T07:34:11;53.47;;;49.20;;
31808;SDS011;18379;48.208;-1.518;2023-06-26T07:39:11;52.80;;;49.03;;
31808;SDS011;18379;48.208;-1.518;2023-06-26T07:44:12;53.40;;;49.17;;
31808;SDS011;18379;48.208;-1.518;2023-06-26T07:49:14;54.00;;;49.70;;
31808;SDS011;18379;48.208;-1.518;2023-06-26T07:54:15;53.33;;;49.33;;
31808;SDS011;18379;48.208;-1.518;2023-06-26T07:59:15;53.60;;;49.70;;
31808;SDS011;18379;48.208;-1.518;2023-06-26T08:04:17;54.00;;;49.97;;
31808;SDS011;18379;48.208;-1.518;2023-06-26T08:09:20;52.87;;;49.07;;
31808;SDS011;18379;48.208;-1.518;2023-06-26T08:14:23;52.87;;;49.20;;
31808;SDS011;18379;48.208;-1.518;2023-06-26T08:19:24;53.63;;;49.27;;
31808;SDS011;18379;48.208;-1.518;2023-06-26T08:24:24;53.00;;;49.20;;
31808;SDS011;18379;48.208;-1.518;2023-06-26T08:29:25;53.70;;;49.37;;
31808;SDS011;18379;48.208;-1.518;2023-06-26T08:34:26;53.50;;;49.70;;
31808;SDS011;18379;48.208;-1.518;2023-06-26T08:39:27;54.23;;;50.03;;
31808;SDS011;18379;48.208;-1.518;2023-06-26T08:44:28;54.10;;;50.00;;
31808;SDS011;18379;48.208;-1.518;2023-06-26T08:50:30;53.73;;;49.93;;
31808;SDS011;18379;48.208;-1.518;2023-06-26T08:54:59;53.57;;;49.63;;
31808;SDS011;18379;48.208;-1.518;2023-06-26T09:00:02;54.03;;;50.23;;
31808;SDS011;18379;48.208;-1.518;2023-06-26T09:05:04;54.67;;;50.53;;
31808;SDS011;18379;48.208;-1.518;2023-06-26T09:10:05;53.87;;;49.93;;
31808;SDS011;18379;48.208;-1.518;2023-06-26T09:15:06;53.23;;;49.63;;
31808;SDS011;18379;48.208;-1.518;2023-06-26T09:20:08;54.90;;;51.00;;
31808;SDS011;18379;48.208;-1.518;2023-06-26T09:25:10;54.37;;;50.77;;
31808;SDS011;18379;48.208;-1.518;2023-06-26T09:30:12;54.37;;;50.67;;
31808;SDS011;18379;48.208;-1.518;2023-06-26T09:35:17;54.37;;;50.67;;
31808;SDS011;18379;48.208;-1.518;2023-06-26T09:40:18;54.70;;;50.60;;
31808;SDS011;18379;48.208;-1.518;2023-06-26T09:45:19;54.43;;;50.83;;
31808;SDS011;18379;48.208;-1.518;2023-06-26T09:50:21;55.53;;;51.17;;
31808;SDS011;18379;48.208;-1.518;2023-06-26T09:55:23;53.97;;;50.10;;
31808;SDS011;18379;48.208;-1.518;2023-06-26T10:00:25;53.73;;;50.13;;
31808;SDS011;18379;48.208;-1.518;2023-06-26T10:06:10;54.57;;;50.97;;
31808;SDS011;18379;48.208;-1.518;2023-06-26T10:30:44;53.87;;;50.33;;
31808;SDS011;18379;48.208;-1.518;2023-06-26T10:35:47;54.17;;;50.53;;
31808;SDS011;18379;48.208;-1.518;2023-06-26T10:40:49;55.27;;;51.57;;
31808;SDS011;18379;48.208;-1.518;2023-06-26T10:45:50;54.73;;;51.03;;
31808;SDS011;18379;48.208;-1.518;2023-06-26T10:50:55;54.43;;;50.83;;
31808;SDS011;18379;48.208;-1.518;2023-06-26T11:01:35;54.90;;;51.00;;
31808;SDS011;18379;48.208;-1.518;2023-06-26T11:06:26;54.43;;;50.77;;
31808;SDS011;18379;48.208;-1.518;2023-06-26T11:16:56;54.85;;;51.05;;
31808;SDS011;18379;48.208;-1.518;2023-06-26T11:22:17;55.10;;;51.30;;
31808;SDS011;18379;48.208;-1.518;2023-06-26T11:27:18;55.27;;;51.50;;
31808;SDS011;18379;48.208;-1.518;2023-06-26T11:32:19;55.73;;;51.70;;
31808;SDS011;18379;48.208;-1.518;2023-06-26T11:37:21;55.27;;;51.33;;
31808;SDS011;18379;48.208;-1.518;2023-06-26T11:42:23;55.70;;;51.70;;
31808;SDS011;18379;48.208;-1.518;2023-06-26T11:47:28;55.27;;;51.20;;
31808;SDS011;18379;48.208;-1.518;2023-06-26T11:52:29;55.20;;;51.10;;
31808;SDS011;18379;48.208;-1.518;2023-06-26T11:57:33;55.50;;;51.63;;
31808;SDS011;18379;48.208;-1.518;2023-06-26T12:02:34;56.10;;;51.90;;
31808;SDS011;18379;48.208;-1.518;2023-06-26T12:07:35;55.33;;;51.47;;
31808;SDS011;18379;48.208;-1.518;2023-06-26T12:12:38;55.93;;;51.90;;
31808;SDS011;18379;48.208;-1.518;2023-06-26T12:17:40;55.57;;;51.57;;
31808;SDS011;18379;48.208;-1.518;2023-06-26T12:22:40;55.50;;;51.57;;
31808;SDS011;18379;48.208;-1.518;2023-06-26T12:27:44;55.73;;;51.60;;
31808;SDS011;18379;48.208;-1.518;2023-06-26T12:32:46;55.22;;;51.47;;
31808;SDS011;18379;48.208;-1.518;2023-06-26T12:37:47;55.75;;;51.85;;
31808;SDS011;18379;48.208;-1.518;2023-06-26T12:42:48;55.38;;;51.65;;
31808;SDS011;18379;48.208;-1.518;2023-06-26T12:47:49;55.40;;;51.60;;
31808;SDS011;18379;48.208;-1.518;2023-06-26T12:52:49;55.63;;;51.83;;
31808;SDS011;18379;48.208;-1.518;2023-06-26T12:57:50;55.95;;;51.95;;
31808;SDS011;18379;48.208;-1.518;2023-06-26T13:02:51;56.03;;;51.97;;
31808;SDS011;18379;48.208;-1.518;2023-06-26T13:07:52;56.47;;;52.47;;
31808;SDS011;18379;48.208;-1.518;2023-06-26T13:12:53;56.75;;;52.38;;
31808;SDS011;18379;48.208;-1.518;2023-06-26T13:17:54;56.72;;;52.45;;
31808;SDS011;18379;48.208;-1.518;2023-06-26T13:22:55;57.65;;;53.65;;
31808;SDS011;18379;48.208;-1.518;2023-06-26T13:27:56;56.63;;;52.58;;
31808;SDS011;18379;48.208;-1.518;2023-06-26T13:32:57;56.05;;;52.30;;
31808;SDS011;18379;48.208;-1.518;2023-06-26T13:37:57;56.78;;;52.67;;
31808;SDS011;18379;48.208;-1.518;2023-06-26T13:42:59;56.60;;;52.42;;
31808;SDS011;18379;48.208;-1.518;2023-06-26T13:48:00;56.47;;;52.37;;
31808;SDS011;18379;48.208;-1.518;2023-06-26T13:53:00;55.83;;;52.03;;
31808;SDS011;18379;48.208;-1.518;2023-06-26T13:58:02;56.33;;;52.20;;
31808;SDS011;18379;48.208;-1.518;2023-06-26T14:03:06;56.00;;;52.13;;
31808;SDS011;18379;48.208;-1.518;2023-06-26T14:08:07;56.50;;;52.70;;
31808;SDS011;18379;48.208;-1.518;2023-06-26T14:13:09;56.70;;;52.72;;
31808;SDS011;18379;48.208;-1.518;2023-06-26T14:18:11;56.05;;;51.97;;
31808;SDS011;18379;48.208;-1.518;2023-06-26T14:23:12;56.20;;;52.08;;
31808;SDS011;18379;48.208;-1.518;2023-06-26T14:28:14;56.33;;;52.30;;
31808;SDS011;18379;48.208;-1.518;2023-06-26T14:33:15;56.75;;;52.92;;
31808;SDS011;18379;48.208;-1.518;2023-06-26T14:38:16;55.38;;;51.65;;
31808;SDS011;18379;48.208;-1.518;2023-06-26T14:43:17;56.50;;;52.63;;
31808;SDS011;18379;48.208;-1.518;2023-06-26T14:48:18;57.13;;;52.85;;
31808;SDS011;18379;48.208;-1.518;2023-06-26T14:53:20;56.30;;;52.17;;
31808;SDS011;18379;48.208;-1.518;2023-06-26T14:58:23;56.92;;;52.92;;
31808;SDS011;18379;48.208;-1.518;2023-06-26T15:04:00;56.28;;;52.17;;
31808;SDS011;18379;48.208;-1.518;2023-06-26T15:09:01;56.72;;;52.47;;
31808;SDS011;18379;48.208;-1.518;2023-06-26T15:14:02;56.90;;;52.42;;
31808;SDS011;18379;48.208;-1.518;2023-06-26T15:19:03;56.27;;;52.37;;
31808;SDS011;18379;48.208;-1.518;2023-06-26T15:24:04;55.55;;;51.55;;
31808;SDS011;18379;48.208;-1.518;2023-06-26T15:29:11;55.60;;;51.70;;
31808;SDS011;18379;48.208;-1.518;2023-06-26T15:34:14;56.05;;;52.13;;
31808;SDS011;18379;48.208;-1.518;2023-06-26T15:39:15;55.97;;;52.20;;
31808;SDS011;18379;48.208;-1.518;2023-06-26T15:44:20;56.00;;;52.05;;
31808;SDS011;18379;48.208;-1.518;2023-06-26T15:49:21;55.78;;;51.88;;
31808;SDS011;18379;48.208;-1.518;2023-06-26T15:54:21;56.65;;;52.53;;
31808;SDS011;18379;48.208;-1.518;2023-06-26T15:59:22;56.40;;;52.50;;
31808;SDS011;18379;48.208;-1.518;2023-06-26T16:04:23;56.30;;;52.30;;
31808;SDS011;18379;48.208;-1.518;2023-06-26T16:09:24;55.55;;;51.72;;
31808;SDS011;18379;48.208;-1.518;2023-06-26T16:14:25;56.10;;;52.13;;
31808;SDS011;18379;48.208;-1.518;2023-06-26T16:19:26;55.40;;;51.50;;
31808;SDS011;18379;48.208;-1.518;2023-06-26T16:24:26;55.10;;;51.33;;
31808;SDS011;18379;48.208;-1.518;2023-06-26T16:29:27;56.17;;;52.13;;
31808;SDS011;18379;48.208;-1.518;2023-06-26T16:34:28;54.97;;;51.27;;
31808;SDS011;18379;48.208;-1.518;2023-06-26T16:39:29;55.63;;;51.83;;
31808;SDS011;18379;48.208;-1.518;2023-06-26T16:44:30;54.90;;;51.20;;
31808;SDS011;18379;48.208;-1.518;2023-06-26T16:49:30;55.10;;;51.17;;
31808;SDS011;18379;48.208;-1.518;2023-06-26T16:54:31;55.37;;;51.37;;
31808;SDS011;18379;48.208;-1.518;2023-06-26T16:59:32;55.20;;;51.30;;
31808;SDS011;18379;48.208;-1.518;2023-06-26T17:04:33;55.33;;;51.40;;
31808;SDS011;18379;48.208;-1.518;2023-06-26T17:09:34;55.43;;;51.50;;
31808;SDS011;18379;48.208;-1.518;2023-06-26T17:14:35;55.63;;;51.63;;
31808;SDS011;18379;48.208;-1.518;2023-06-26T17:19:35;55.43;;;51.53;;
31808;SDS011;18379;48.208;-1.518;2023-06-26T17:24:36;55.67;;;51.73;;
31808;SDS011;18379;48.208;-1.518;2023-06-26T17:35:33;54.93;;;51.03;;
31808;SDS011;18379;48.208;-1.518;2023-06-26T17:40:34;54.33;;;50.50;;
31808;SDS011;18379;48.208;-1.518;2023-06-26T17:45:35;54.23;;;50.57;;
31808;SDS011;18379;48.208;-1.518;2023-06-26T17:50:37;54.33;;;50.50;;
31808;SDS011;18379;48.208;-1.518;2023-06-26T17:55:38;54.40;;;50.43;;
31808;SDS011;18379;48.208;-1.518;2023-06-26T18:00:39;53.67;;;50.17;;
31808;SDS011;18379;48.208;-1.518;2023-06-26T18:05:39;54.23;;;50.53;;
31808;SDS011;18379;48.208;-1.518;2023-06-26T18:10:42;54.63;;;50.73;;
31808;SDS011;18379;48.208;-1.518;2023-06-26T18:15:42;53.73;;;50.17;;
31808;SDS011;18379;48.208;-1.518;2023-06-26T18:20:43;53.90;;;50.20;;
31808;SDS011;18379;48.208;-1.518;2023-06-26T18:25:44;53.97;;;50.37;;
31808;SDS011;18379;48.208;-1.518;2023-06-26T18:30:45;55.27;;;51.53;;
31808;SDS011;18379;48.208;-1.518;2023-06-26T18:35:45;54.40;;;50.33;;
31808;SDS011;18379;48.208;-1.518;2023-06-26T18:40:46;54.53;;;50.47;;
31808;SDS011;18379;48.208;-1.518;2023-06-26T18:45:47;53.63;;;49.83;;
31808;SDS011;18379;48.208;-1.518;2023-06-26T18:50:48;54.60;;;50.93;;
31808;SDS011;18379;48.208;-1.518;2023-06-26T18:55:49;53.50;;;49.90;;
31808;SDS011;18379;48.208;-1.518;2023-06-26T19:00:50;54.73;;;50.57;;
31808;SDS011;18379;48.208;-1.518;2023-06-26T19:05:51;53.07;;;49.37;;
31808;SDS011;18379;48.208;-1.518;2023-06-26T19:10:52;54.17;;;50.27;;
31808;SDS011;18379;48.208;-1.518;2023-06-26T19:15:53;53.50;;;49.47;;
31808;SDS011;18379;48.208;-1.518;2023-06-26T19:20:53;53.73;;;50.03;;
31808;SDS011;18379;48.208;-1.518;2023-06-26T19:25:54;53.30;;;49.80;;
31808;SDS011;18379;48.208;-1.518;2023-06-26T19:30:56;53.57;;;49.77;;
31808;SDS011;18379;48.208;-1.518;2023-06-26T19:35:56;53.70;;;49.80;;
31808;SDS011;18379;48.208;-1.518;2023-06-26T19:40:58;54.03;;;50.27;;
31808;SDS011;18379;48.208;-1.518;2023-06-26T19:45:59;53.20;;;49.07;;
31808;SDS011;18379;48.208;-1.518;2023-06-26T19:51:03;53.40;;;49.47;;
31808;SDS011;18379;48.208;-1.518;2023-06-26T19:56:03;53.50;;;49.73;;
31808;SDS011;18379;48.208;-1.518;2023-06-26T20:01:05;53.50;;;49.57;;
31808;SDS011;18379;48.208;-1.518;2023-06-26T20:06:06;52.73;;;49.13;;
31808;SDS011;18379;48.208;-1.518;2023-06-26T20:11:07;53.13;;;49.63;;
31808;SDS011;18379;48.208;-1.518;2023-06-26T20:16:08;52.93;;;49.10;;
31808;SDS011;18379;48.208;-1.518;2023-06-26T20:21:09;52.13;;;48.73;;
31808;SDS011;18379;48.208;-1.518;2023-06-26T20:26:10;52.87;;;49.10;;
31808;SDS011;18379;48.208;-1.518;2023-06-26T20:31:11;53.13;;;49.13;;
31808;SDS011;18379;48.208;-1.518;2023-06-26T20:36:12;52.87;;;48.93;;
31808;SDS011;18379;48.208;-1.518;2023-06-26T20:41:13;55.73;;;51.40;;
31808;SDS011;18379;48.208;-1.518;2023-06-26T20:46:14;52.53;;;48.70;;
31808;SDS011;18379;48.208;-1.518;2023-06-26T20:51:17;52.50;;;49.00;;
31808;SDS011;18379;48.208;-1.518;2023-06-26T21:02:28;52.37;;;48.87;;
31808;SDS011;18379;48.208;-1.518;2023-06-26T21:07:29;52.70;;;49.03;;
31808;SDS011;18379;48.208;-1.518;2023-06-26T21:12:30;52.77;;;48.87;;
31808;SDS011;18379;48.208;-1.518;2023-06-26T21:17:32;52.90;;;49.10;;
31808;SDS011;18379;48.208;-1.518;2023-06-26T21:22:33;51.93;;;48.33;;
31808;SDS011;18379;48.208;-1.518;2023-06-26T21:27:34;53.07;;;49.10;;
31808;SDS011;18379;48.208;-1.518;2023-06-26T21:32:35;51.80;;;48.37;;
31808;SDS011;18379;48.208;-1.518;2023-06-26T21:37:35;52.00;;;48.40;;
31808;SDS011;18379;48.208;-1.518;2023-06-26T21:42:36;53.43;;;49.53;;
31808;SDS011;18379;48.208;-1.518;2023-06-26T21:47:37;51.60;;;48.23;;
31808;SDS011;18379;48.208;-1.518;2023-06-26T21:52:38;51.47;;;48.07;;
31808;SDS011;18379;48.208;-1.518;2023-06-26T21:57:39;52.13;;;48.30;;
31808;SDS011;18379;48.208;-1.518;2023-06-26T22:02:40;52.50;;;48.57;;
31808;SDS011;18379;48.208;-1.518;2023-06-26T22:07:41;52.37;;;48.23;;
31808;SDS011;18379;48.208;-1.518;2023-06-26T22:12:41;52.13;;;48.33;;
31808;SDS011;18379;48.208;-1.518;2023-06-26T22:17:53;52.07;;;48.23;;
31808;SDS011;18379;48.208;-1.518;2023-06-26T22:22:55;52.77;;;48.70;;
31808;SDS011;18379;48.208;-1.518;2023-06-26T22:27:56;51.37;;;47.60;;
31808;SDS011;18379;48.208;-1.518;2023-06-26T22:32:56;51.03;;;47.67;;
31808;SDS011;18379;48.208;-1.518;2023-06-26T22:37:57;51.70;;;48.20;;
31808;SDS011;18379;48.208;-1.518;2023-06-26T22:42:58;51.57;;;47.97;;
31808;SDS011;18379;48.208;-1.518;2023-06-26T22:47:59;51.63;;;48.00;;
31808;SDS011;18379;48.208;-1.518;2023-06-26T22:53:00;53.00;;;49.17;;
31808;SDS011;18379;48.208;-1.518;2023-06-26T22:58:01;51.00;;;47.50;;
31808;SDS011;18379;48.208;-1.518;2023-06-26T23:08:26;51.47;;;47.70;;
31808;SDS011;18379;48.208;-1.518;2023-06-26T23:13:27;53.00;;;48.90;;
31808;SDS011;18379;48.208;-1.518;2023-06-26T23:18:28;52.50;;;48.70;;
31808;SDS011;18379;48.208;-1.518;2023-06-26T23:23:29;52.77;;;48.73;;
31808;SDS011;18379;48.208;-1.518;2023-06-26T23:28:29;52.33;;;48.57;;
31808;SDS011;18379;48.208;-1.518;2023-06-26T23:33:33;52.90;;;48.67;;
31808;SDS011;18379;48.208;-1.518;2023-06-26T23:38:40;51.77;;;48.07;;
31808;SDS011;18379;48.208;-1.518;2023-06-26T23:43:43;51.97;;;48.30;;
31808;SDS011;18379;48.208;-1.518;2023-06-26T23:48:43;51.40;;;47.83;;
31808;SDS011;18379;48.208;-1.518;2023-06-26T23:53:44;52.50;;;48.37;;
31808;SDS011;18379;48.208;-1.518;2023-06-26T23:58:45;52.07;;;48.17;;
